createdAt,value
2022-09-27T00:01:04.101Z,58.88
2022-09-27T00:03:31.514Z,58.68
2022-09-27T00:06:25.593Z,58.59
2022-09-27T00:08:53.871Z,58.93
2022-09-27T00:11:34.747Z,59.06
2022-09-27T00:14:03.520Z,58.75
2022-09-27T00:16:31.924Z,59.17
2022-09-27T00:19:04.090Z,58.93
2022-09-27T00:21:31.559Z,58.96
2022-09-27T00:23:58.914Z,58.80
2022-09-27T00:26:25.816Z,58.67
2022-09-27T00:28:52.617Z,58.79
2022-09-27T00:31:24.818Z,59.25
2022-09-27T00:33:52.729Z,59.06
2022-09-27T00:36:20.117Z,58.80
2022-09-27T00:38:47.380Z,58.84
2022-09-27T00:41:19.651Z,59.02
2022-09-27T00:43:46.294Z,58.76
2022-09-27T00:46:14.927Z,59.03
2022-09-27T00:48:42.141Z,58.97
2022-09-27T00:51:09.506Z,59.01
2022-09-27T00:53:45.855Z,58.92
2022-09-27T00:56:15.697Z,58.92
2022-09-27T00:58:45.909Z,58.95
2022-09-27T01:01:13.758Z,59.14
2022-09-27T01:03:47.793Z,59.23
2022-09-27T01:06:14.540Z,59.61
2022-09-27T01:08:41.895Z,59.81
2022-09-27T01:11:24.610Z,59.69
2022-09-27T01:14:21.461Z,59.76
2022-09-27T01:16:53.525Z,59.68
2022-09-27T01:19:20.280Z,59.63
2022-09-27T01:21:58.476Z,59.70
2022-09-27T01:24:48.051Z,59.84
2022-09-27T01:27:41.416Z,59.67
2022-09-27T01:30:20.960Z,59.83
2022-09-27T01:33:08.501Z,59.91
2022-09-27T01:35:44.033Z,59.83
2022-09-27T01:38:16.201Z,59.94
2022-09-27T01:41:24.311Z,59.79
2022-09-27T01:44:04.163Z,59.82
2022-09-27T01:47:02.345Z,59.69
2022-09-27T01:49:36.762Z,59.80
2022-09-27T01:52:05.552Z,59.93
2022-09-27T01:54:37.211Z,60.42
2022-09-27T01:57:04.565Z,60.41
2022-09-27T01:59:37.540Z,60.13
2022-09-27T02:02:07.334Z,60.03
2022-09-27T02:04:34.421Z,60.14
2022-09-27T02:07:51.238Z,60.13
2022-09-27T02:10:25.967Z,60.23
2022-09-27T02:12:57.577Z,60.12
2022-09-27T02:15:24.478Z,60.09
2022-09-27T02:17:51.322Z,59.99
2022-09-27T02:20:39.979Z,60.05
2022-09-27T02:23:16.554Z,60.09
2022-09-27T02:25:46.698Z,60.06
2022-09-27T02:28:30.425Z,60.31
2022-09-27T02:30:57.511Z,60.34
2022-09-27T02:33:59.343Z,60.54
2022-09-27T02:36:26.190Z,60.79
2022-09-27T02:38:52.934Z,60.68
2022-09-27T02:41:20.601Z,60.60
2022-09-27T02:43:59.940Z,60.54
2022-09-27T02:46:37.903Z,60.47
2022-09-27T02:49:54.973Z,60.59
2022-09-27T02:52:28.169Z,60.53
2022-09-27T02:55:14.365Z,60.60
2022-09-27T02:58:06.495Z,60.61
2022-09-27T03:00:59.488Z,60.62
2022-09-27T03:03:29.471Z,60.72
2022-09-27T03:06:02.205Z,61.11
2022-09-27T03:08:29.401Z,61.20
2022-09-27T03:10:56.039Z,61.19
2022-09-27T03:13:23.292Z,61.22
2022-09-27T03:15:50.340Z,61.17
2022-09-27T03:18:17.799Z,61.30
2022-09-27T03:20:44.643Z,61.44
2022-09-27T03:23:12.209Z,61.00
2022-09-27T03:25:40.181Z,61.36
2022-09-27T03:28:11.017Z,61.25
2022-09-27T03:30:38.835Z,61.42
2022-09-27T03:33:05.742Z,61.47
2022-09-27T03:35:33.296Z,61.65
2022-09-27T03:38:00.760Z,61.88
2022-09-27T03:40:27.884Z,61.54
2022-09-27T03:42:56.301Z,61.51
2022-09-27T03:45:23.047Z,61.52
2022-09-27T03:47:50.001Z,61.52
2022-09-27T03:50:17.151Z,61.57
2022-09-27T03:52:44.513Z,61.59
2022-09-27T03:55:12.282Z,61.70
2022-09-27T03:57:39.947Z,62.29
2022-09-27T04:00:07.715Z,61.88
2022-09-27T04:02:34.509Z,61.69
2022-09-27T04:05:01.513Z,61.58
2022-09-27T04:07:30.477Z,61.54
2022-09-27T04:09:58.786Z,61.84
2022-09-27T04:12:25.736Z,61.71
2022-09-27T04:14:54.732Z,61.54
2022-09-27T04:17:21.890Z,61.64
2022-09-27T04:19:49.958Z,61.69
2022-09-27T04:22:17.320Z,61.81
2022-09-27T04:24:44.066Z,61.55
2022-09-27T04:27:11.020Z,61.58
2022-09-27T04:29:41.814Z,61.56
2022-09-27T04:32:09.321Z,61.36
2022-09-27T04:34:54.804Z,61.14
2022-09-27T04:37:22.159Z,61.16
2022-09-27T04:39:49.207Z,61.12
2022-09-27T04:42:17.379Z,61.21
2022-09-27T04:44:44.529Z,61.37
2022-09-27T04:47:11.475Z,61.37
2022-09-27T04:49:39.239Z,61.11
2022-09-27T04:52:06.489Z,60.86
2022-09-27T04:54:33.957Z,60.68
2022-09-27T04:57:00.909Z,60.58
2022-09-27T04:59:27.736Z,60.65
2022-09-27T05:01:55.133Z,60.59
2022-09-27T05:04:22.855Z,60.75
2022-09-27T05:06:54.901Z,61.06
2022-09-27T05:09:23.915Z,60.94
2022-09-27T05:11:50.649Z,61.16
2022-09-27T05:14:17.963Z,61.05
2022-09-27T05:16:45.098Z,61.06
2022-09-27T05:19:12.917Z,61.21
2022-09-27T05:21:39.966Z,61.18
2022-09-27T05:24:07.218Z,60.89
2022-09-27T05:26:34.263Z,61.01
2022-09-27T05:29:01.211Z,61.17
2022-09-27T05:31:29.245Z,61.16
2022-09-27T05:33:56.428Z,61.10
2022-09-27T05:36:23.270Z,61.12
2022-09-27T05:38:50.727Z,61.08
2022-09-27T05:41:17.707Z,60.97
2022-09-27T05:43:45.842Z,60.91
2022-09-27T05:46:12.756Z,61.00
2022-09-27T05:48:42.746Z,61.04
2022-09-27T05:51:14.061Z,61.05
2022-09-27T05:53:40.801Z,61.02
2022-09-27T05:56:08.348Z,61.01
2022-09-27T05:58:35.375Z,61.12
2022-09-27T06:01:09.483Z,61.06
2022-09-27T06:03:40.490Z,60.96
2022-09-27T06:06:07.651Z,61.01
2022-09-27T06:08:35.619Z,61.05
2022-09-27T06:11:07.704Z,61.18
2022-09-27T06:13:44.598Z,61.03
2022-09-27T06:16:12.010Z,61.05
2022-09-27T06:18:39.194Z,61.53
2022-09-27T06:21:08.827Z,61.47
2022-09-27T06:23:37.292Z,61.34
2022-09-27T06:26:05.522Z,61.15
2022-09-27T06:28:34.917Z,61.46
2022-09-27T06:31:01.677Z,61.53
2022-09-27T06:33:28.874Z,61.72
2022-09-27T06:35:55.819Z,61.58
2022-09-27T06:38:24.401Z,61.72
2022-09-27T06:40:51.713Z,61.81
2022-09-27T06:43:20.446Z,61.80
2022-09-27T06:45:47.550Z,62.00
2022-09-27T06:48:17.509Z,62.04
2022-09-27T06:50:45.502Z,62.06
2022-09-27T06:53:14.390Z,61.85
2022-09-27T06:55:41.004Z,61.84
2022-09-27T06:58:28.238Z,61.70
2022-09-27T07:00:55.309Z,61.88
2022-09-27T07:03:28.432Z,61.89
2022-09-27T07:06:02.010Z,61.90
2022-09-27T07:08:29.029Z,61.87
2022-09-27T07:10:56.388Z,61.77
2022-09-27T07:13:23.455Z,61.75
2022-09-27T07:15:51.213Z,61.84
2022-09-27T07:18:18.688Z,61.98
2022-09-27T07:20:45.834Z,62.05
2022-09-27T07:23:12.783Z,62.20
2022-09-27T07:25:39.534Z,62.43
2022-09-27T07:28:07.914Z,62.33
2022-09-27T07:30:36.334Z,62.44
2022-09-27T07:33:05.906Z,62.63
2022-09-27T07:35:32.966Z,62.82
2022-09-27T07:37:59.904Z,62.99
2022-09-27T07:40:26.884Z,62.93
2022-09-27T07:42:55.536Z,62.88
2022-09-27T07:45:24.410Z,62.78
2022-09-27T07:47:53.423Z,62.74
2022-09-27T07:50:20.576Z,62.67
2022-09-27T07:52:49.759Z,62.63
2022-09-27T07:55:16.937Z,62.48
2022-09-27T07:57:47.211Z,62.66
2022-09-27T08:00:17.060Z,62.53
2022-09-27T08:02:44.273Z,62.55
2022-09-27T08:05:11.800Z,62.73
2022-09-27T08:07:39.361Z,62.56
2022-09-27T08:10:07.123Z,62.24
2022-09-27T08:12:34.177Z,62.30
2022-09-27T08:15:02.764Z,62.36
2022-09-27T08:17:31.862Z,62.38
2022-09-27T08:19:58.604Z,62.37
2022-09-27T08:22:28.268Z,62.23
2022-09-27T08:24:56.312Z,62.55
2022-09-27T08:27:23.342Z,62.65
2022-09-27T08:29:50.909Z,62.66
2022-09-27T08:32:23.097Z,62.39
2022-09-27T08:34:50.950Z,62.49
2022-09-27T08:37:17.650Z,62.55
2022-09-27T08:39:47.961Z,62.29
2022-09-27T08:42:25.734Z,62.23
2022-09-27T08:45:16.133Z,62.36
2022-09-27T08:47:59.911Z,62.28
2022-09-27T08:50:39.525Z,62.32
2022-09-27T08:53:17.627Z,62.20
2022-09-27T08:55:48.979Z,62.32
2022-09-27T08:58:28.013Z,62.32
2022-09-27T09:00:56.957Z,62.17
2022-09-27T09:03:26.109Z,62.35
2022-09-27T09:06:10.847Z,62.43
2022-09-27T09:08:57.488Z,62.44
2022-09-27T09:12:01.815Z,62.76
2022-09-27T09:15:17.514Z,62.94
2022-09-27T09:17:45.085Z,62.74
2022-09-27T09:20:16.800Z,62.74
2022-09-27T09:23:17.804Z,62.76
2022-09-27T09:26:03.598Z,62.78
2022-09-27T09:28:54.021Z,62.71
2022-09-27T09:31:25.248Z,62.67
2022-09-27T09:34:14.986Z,62.55
2022-09-27T09:36:48.144Z,62.69
2022-09-27T09:39:39.256Z,62.86
2022-09-27T09:42:14.287Z,62.60
2022-09-27T09:45:07.199Z,62.73
2022-09-27T09:47:39.100Z,62.71
2022-09-27T09:50:19.054Z,62.61
2022-09-27T09:52:59.001Z,62.52
2022-09-27T09:55:28.453Z,62.54
2022-09-27T09:58:01.697Z,62.63
2022-09-27T10:00:29.360Z,62.69
2022-09-27T10:02:58.529Z,62.63
2022-09-27T10:05:26.273Z,62.71
2022-09-27T10:07:56.130Z,62.62
2022-09-27T10:10:23.590Z,62.49
2022-09-27T10:12:51.560Z,62.75
2022-09-27T10:15:19.945Z,62.31
2022-09-27T10:17:51.558Z,62.41
2022-09-27T10:20:33.850Z,62.09
2022-09-27T10:23:21.066Z,62.20
2022-09-27T10:25:58.032Z,62.35
2022-09-27T10:28:34.307Z,62.40
2022-09-27T10:31:07.069Z,62.22
2022-09-27T10:33:36.627Z,62.12
2022-09-27T10:36:03.447Z,61.97
2022-09-27T10:38:32.792Z,61.69
2022-09-27T10:41:23.767Z,61.74
2022-09-27T10:43:51.742Z,61.47
2022-09-27T10:46:26.268Z,61.41
2022-09-27T10:49:28.852Z,61.34
2022-09-27T10:52:17.789Z,61.36
2022-09-27T10:55:05.459Z,61.30
2022-09-27T10:57:32.410Z,61.21
2022-09-27T11:00:01.406Z,61.09
2022-09-27T11:02:34.227Z,61.01
2022-09-27T11:05:15.346Z,60.95
2022-09-27T11:07:53.696Z,60.75
2022-09-27T11:10:28.407Z,60.71
2022-09-27T11:13:12.688Z,60.67
2022-09-27T11:15:53.727Z,60.47
2022-09-27T11:18:42.607Z,60.30
2022-09-27T11:21:28.902Z,60.26
2022-09-27T11:24:03.674Z,59.96
2022-09-27T11:26:50.966Z,60.03
2022-09-27T11:29:55.599Z,59.87
2022-09-27T11:32:42.625Z,59.68
2022-09-27T11:35:56.578Z,59.51
2022-09-27T11:38:52.106Z,59.36
2022-09-27T11:41:25.300Z,59.38
2022-09-27T11:44:02.285Z,59.29
2022-09-27T11:46:41.338Z,59.30
2022-09-27T11:49:41.656Z,59.23
2022-09-27T11:52:15.539Z,59.15
2022-09-27T11:55:16.631Z,59.16
2022-09-27T11:58:10.826Z,59.05
2022-09-27T12:00:49.924Z,58.89
2022-09-27T12:03:56.135Z,58.67
2022-09-27T12:06:41.114Z,58.64
2022-09-27T12:09:19.642Z,58.20
2022-09-27T12:11:59.496Z,57.67
2022-09-27T12:14:41.836Z,57.84
2022-09-27T12:17:16.234Z,57.93
2022-09-27T12:19:50.308Z,58.15
2022-09-27T12:22:46.790Z,57.97
2022-09-27T12:25:18.278Z,57.71
2022-09-27T12:28:14.389Z,57.83
2022-09-27T12:30:42.805Z,57.72
2022-09-27T12:33:17.918Z,57.42
2022-09-27T12:35:51.156Z,56.68
2022-09-27T12:38:38.256Z,55.89
2022-09-27T12:41:05.410Z,55.74
2022-09-27T12:43:34.717Z,55.90
2022-09-27T12:46:08.294Z,55.79
2022-09-27T12:48:41.212Z,55.74
2022-09-27T12:51:10.042Z,55.79
2022-09-27T12:54:03.278Z,55.68
2022-09-27T12:56:43.542Z,55.64
2022-09-27T12:59:40.094Z,55.65
2022-09-27T13:03:03.832Z,55.53
2022-09-27T13:06:27.559Z,55.62
2022-09-27T13:09:06.588Z,55.44
2022-09-27T13:12:11.210Z,55.47
2022-09-27T13:14:44.523Z,55.64
2022-09-27T13:17:39.946Z,55.61
2022-09-27T13:20:31.979Z,55.71
2022-09-27T13:22:59.241Z,55.65
2022-09-27T13:25:56.414Z,55.79
2022-09-27T13:28:28.880Z,55.77
2022-09-27T13:30:56.489Z,55.69
2022-09-27T13:33:34.240Z,55.78
2022-09-27T13:36:24.124Z,55.78
2022-09-27T13:39:06.737Z,55.78
2022-09-27T13:41:37.070Z,55.63
2022-09-27T13:44:23.064Z,55.67
2022-09-27T13:46:53.774Z,55.51
2022-09-27T13:49:26.174Z,55.58
2022-09-27T13:51:57.116Z,55.72
2022-09-27T13:54:33.895Z,55.68
2022-09-27T13:57:01.611Z,55.72
2022-09-27T13:59:35.811Z,55.68
2022-09-27T14:02:29.233Z,55.76
2022-09-27T14:04:56.092Z,55.68
2022-09-27T14:07:38.969Z,55.57
2022-09-27T14:10:06.977Z,55.44
2022-09-27T14:12:35.462Z,55.48
2022-09-27T14:15:03.537Z,55.44
2022-09-27T14:17:32.527Z,55.55
2022-09-27T14:19:59.576Z,55.71
2022-09-27T14:22:26.321Z,55.74
2022-09-27T14:24:55.210Z,55.78
2022-09-27T14:27:26.223Z,55.85
2022-09-27T14:29:57.558Z,55.83
2022-09-27T14:32:26.165Z,55.90
2022-09-27T14:35:04.407Z,55.90
2022-09-27T14:37:32.485Z,55.87
2022-09-27T14:40:05.670Z,55.85
2022-09-27T14:42:36.133Z,55.72
2022-09-27T14:45:16.884Z,55.68
2022-09-27T14:47:46.149Z,55.78
2022-09-27T14:50:18.463Z,55.76
2022-09-27T14:52:46.843Z,55.95
2022-09-27T14:55:18.511Z,55.91
2022-09-27T14:57:47.451Z,56.00
2022-09-27T15:00:20.189Z,55.96
2022-09-27T15:02:47.826Z,56.02
2022-09-27T15:05:19.513Z,56.17
2022-09-27T15:07:46.674Z,56.18
2022-09-27T15:10:16.625Z,56.37
2022-09-27T15:12:47.481Z,56.42
2022-09-27T15:15:16.530Z,56.47
2022-09-27T15:17:43.689Z,56.48
2022-09-27T15:20:35.792Z,56.49
2022-09-27T15:23:04.559Z,56.46
2022-09-27T15:25:34.253Z,56.50
2022-09-27T15:28:04.353Z,56.42
2022-09-27T15:30:36.942Z,56.46
2022-09-27T15:33:04.712Z,56.51
2022-09-27T15:35:33.770Z,56.57
2022-09-27T15:38:28.750Z,56.46
2022-09-27T15:41:31.580Z,56.59
2022-09-27T15:44:03.104Z,56.53
2022-09-27T15:46:40.766Z,56.53
2022-09-27T15:49:19.097Z,56.83
2022-09-27T15:51:48.430Z,56.77
2022-09-27T15:54:22.566Z,56.61
2022-09-27T15:56:55.523Z,56.69
2022-09-27T15:59:26.430Z,56.69
2022-09-27T16:01:58.074Z,56.74
2022-09-27T16:04:27.181Z,56.91
2022-09-27T16:06:54.493Z,56.75
2022-09-27T16:09:21.443Z,56.73
2022-09-27T16:11:49.000Z,56.84
2022-09-27T16:14:17.893Z,56.85
2022-09-27T16:16:50.014Z,56.92
2022-09-27T16:19:17.504Z,56.88
2022-09-27T16:21:45.116Z,56.89
2022-09-27T16:24:15.201Z,57.01
2022-09-27T16:26:42.326Z,57.01
2022-09-27T16:29:14.008Z,57.05
2022-09-27T16:31:42.095Z,57.10
2022-09-27T16:34:11.092Z,57.16
2022-09-27T16:36:38.595Z,57.21
2022-09-27T16:39:12.405Z,57.16
2022-09-27T16:41:43.037Z,57.00
2022-09-27T16:44:12.017Z,57.07
2022-09-27T16:46:43.060Z,57.08
2022-09-27T16:49:31.035Z,57.16
2022-09-27T16:52:01.479Z,57.15
2022-09-27T16:54:28.910Z,57.21
2022-09-27T16:56:56.992Z,57.36
2022-09-27T16:59:24.868Z,57.20
2022-09-27T17:01:52.011Z,57.43
2022-09-27T17:04:19.978Z,57.32
2022-09-27T17:06:47.021Z,57.49
2022-09-27T17:09:14.479Z,57.46
2022-09-27T17:11:41.729Z,57.45
2022-09-27T17:14:16.462Z,57.40
2022-09-27T17:16:45.186Z,57.55
2022-09-27T17:19:12.654Z,57.49
2022-09-27T17:21:40.284Z,57.47
2022-09-27T17:24:08.343Z,57.59
2022-09-27T17:26:35.783Z,57.62
2022-09-27T17:29:03.914Z,57.76
2022-09-27T17:31:34.214Z,57.84
2022-09-27T17:34:02.158Z,57.87
2022-09-27T17:36:37.012Z,57.88
2022-09-27T17:39:04.143Z,57.85
2022-09-27T17:41:35.332Z,57.82
2022-09-27T17:44:07.126Z,57.92
2022-09-27T17:46:35.947Z,57.95
2022-09-27T17:49:22.722Z,58.08
2022-09-27T17:51:51.179Z,57.94
2022-09-27T17:54:19.093Z,57.98
2022-09-27T17:56:46.627Z,57.97
2022-09-27T17:59:17.799Z,57.95
2022-09-27T18:01:45.700Z,57.92
2022-09-27T18:04:14.609Z,57.94
2022-09-27T18:06:43.486Z,57.95
2022-09-27T18:09:11.227Z,58.03
2022-09-27T18:11:39.239Z,57.97
2022-09-27T18:14:07.173Z,57.96
2022-09-27T18:16:38.886Z,57.98
2022-09-27T18:19:07.554Z,58.08
2022-09-27T18:21:34.638Z,58.03
2022-09-27T18:24:05.745Z,58.08
2022-09-27T18:26:36.107Z,58.07
2022-09-27T18:29:16.827Z,58.05
2022-09-27T18:31:48.256Z,58.02
2022-09-27T18:34:17.266Z,58.06
2022-09-27T18:36:44.261Z,58.20
2022-09-27T18:39:18.485Z,58.28
2022-09-27T18:41:50.152Z,58.29
2022-09-27T18:44:18.371Z,58.37
2022-09-27T18:46:45.807Z,58.45
2022-09-27T18:49:13.473Z,58.43
2022-09-27T18:51:43.362Z,58.48
2022-09-27T18:54:18.783Z,58.58
2022-09-27T18:56:47.952Z,58.72
2022-09-27T18:59:16.797Z,58.73
2022-09-27T19:01:45.225Z,58.75
2022-09-27T19:04:23.649Z,58.74
2022-09-27T19:06:52.924Z,58.78
2022-09-27T19:09:19.622Z,58.82
2022-09-27T19:11:47.089Z,58.90
2022-09-27T19:14:18.140Z,58.92
2022-09-27T19:16:46.479Z,58.85
2022-09-27T19:19:15.957Z,58.85
2022-09-27T19:21:43.605Z,58.81
2022-09-27T19:24:11.275Z,58.86
2022-09-27T19:26:38.945Z,58.88
2022-09-27T19:29:06.312Z,58.85
2022-09-27T19:31:35.897Z,58.77
2022-09-27T19:34:03.868Z,58.95
2022-09-27T19:36:31.381Z,58.96
2022-09-27T19:39:01.608Z,58.92
2022-09-27T19:41:29.277Z,58.93
2022-09-27T19:43:57.051Z,58.94
2022-09-27T19:46:25.252Z,58.87
2022-09-27T19:48:52.294Z,58.85
2022-09-27T19:51:21.079Z,58.76
2022-09-27T19:53:48.134Z,58.64
2022-09-27T19:56:15.400Z,58.56
2022-09-27T19:58:44.505Z,58.68
2022-09-27T20:01:19.686Z,58.62
2022-09-27T20:03:47.224Z,58.75
2022-09-27T20:06:15.403Z,58.89
2022-09-27T20:08:43.346Z,58.93
2022-09-27T20:11:18.224Z,58.94
2022-09-27T20:13:49.280Z,59.11
2022-09-27T20:16:20.012Z,59.16
2022-09-27T20:18:50.124Z,59.02
2022-09-27T20:21:17.514Z,58.58
2022-09-27T20:23:47.743Z,58.54
2022-09-27T20:26:15.718Z,58.75
2022-09-27T20:28:47.280Z,58.93
2022-09-27T20:31:16.470Z,58.96
2022-09-27T20:33:45.786Z,59.12
2022-09-27T20:36:29.114Z,59.30
2022-09-27T20:39:02.252Z,59.35
2022-09-27T20:41:31.416Z,59.47
2022-09-27T20:44:02.735Z,59.47
2022-09-27T20:46:30.524Z,59.69
2022-09-27T20:49:03.231Z,59.67
2022-09-27T20:51:33.663Z,59.83
2022-09-27T20:54:01.432Z,59.87
2022-09-27T20:56:33.810Z,59.99
2022-09-27T20:59:03.249Z,59.90
2022-09-27T21:01:30.270Z,59.80
2022-09-27T21:03:59.230Z,59.77
2022-09-27T21:06:27.041Z,59.79
2022-09-27T21:08:53.993Z,59.68
2022-09-27T21:11:21.456Z,59.62
2022-09-27T21:13:49.402Z,59.67
2022-09-27T21:16:21.419Z,59.58
2022-09-27T21:18:52.341Z,59.78
2022-09-27T21:21:20.021Z,59.78
2022-09-27T21:23:47.477Z,59.75
2022-09-27T21:26:19.137Z,59.97
2022-09-27T21:28:51.208Z,60.00
2022-09-27T21:31:22.477Z,59.83
2022-09-27T21:33:55.472Z,59.74
2022-09-27T21:36:23.014Z,59.87
2022-09-27T21:38:50.067Z,59.76
2022-09-27T21:41:18.051Z,59.75
2022-09-27T21:43:45.408Z,59.73
2022-09-27T21:46:19.258Z,59.70
2022-09-27T21:48:47.931Z,59.69
2022-09-27T21:51:19.881Z,59.76
2022-09-27T21:53:50.035Z,59.72
2022-09-27T21:56:17.057Z,59.77
2022-09-27T21:58:44.314Z,59.75
2022-09-27T22:01:14.941Z,59.83
2022-09-27T22:03:43.051Z,59.77
2022-09-27T22:06:18.061Z,59.72
2022-09-27T22:08:45.731Z,59.79
2022-09-27T22:11:14.928Z,59.79
2022-09-27T22:13:41.726Z,59.81
2022-09-27T22:16:11.229Z,59.92
2022-09-27T22:18:38.443Z,59.87
2022-09-27T22:21:07.237Z,59.86
2022-09-27T22:23:34.284Z,59.99
2022-09-27T22:26:29.402Z,59.96
2022-09-27T22:28:58.189Z,59.86
2022-09-27T22:31:25.365Z,59.86
2022-09-27T22:33:57.112Z,59.91
2022-09-27T22:36:24.169Z,59.87
2022-09-27T22:38:51.728Z,59.89
2022-09-27T22:41:19.806Z,59.88
2022-09-27T22:43:47.373Z,59.86
2022-09-27T22:46:14.263Z,59.86
2022-09-27T22:48:41.795Z,59.92
2022-09-27T22:51:09.537Z,59.89
2022-09-27T22:53:37.233Z,59.91
2022-09-27T22:56:06.594Z,59.89
2022-09-27T22:58:36.051Z,59.91
2022-09-27T23:01:13.618Z,59.95
2022-09-27T23:03:41.063Z,59.96
2022-09-27T23:06:08.676Z,60.01
2022-09-27T23:08:37.776Z,60.02
2022-09-27T23:11:17.324Z,59.90
2022-09-27T23:13:44.481Z,59.98
2022-09-27T23:16:13.226Z,59.85
2022-09-27T23:18:41.659Z,59.78
2022-09-27T23:21:10.255Z,59.75
2022-09-27T23:23:40.223Z,59.72
2022-09-27T23:26:09.373Z,59.66
2022-09-27T23:28:36.013Z,59.78
2022-09-27T23:31:08.557Z,59.69
2022-09-27T23:33:37.725Z,59.70
2022-09-27T23:36:05.468Z,59.79
2022-09-27T23:38:32.209Z,59.85
2022-09-27T23:40:59.708Z,59.88
2022-09-27T23:43:27.135Z,59.96
2022-09-27T23:45:56.645Z,60.01
2022-09-27T23:48:25.133Z,60.02
2022-09-27T23:50:51.993Z,60.10
2022-09-27T23:53:19.547Z,60.13
2022-09-27T23:55:46.804Z,59.99
2022-09-27T23:58:14.573Z,59.99
